sensor_id;sensor_type;location;lat;lon;timestamp;temperature;humidity
33594;DHT22;19920;52.242;20.940;2023-11-19T00:00:16;1.50;99.90
33594;DHT22;19920;52.242;20.940;2023-11-19T00:02:42;1.50;99.90
33594;DHT22;19920;52.242;20.940;2023-11-19T00:05:09;1.50;99.90
33594;DHT22;19920;52.242;20.940;2023-11-19T00:07:38;1.50;99.90
33594;DHT22;19920;52.242;20.940;2023-11-19T00:10:08;1.50;99.90
33594;DHT22;19920;52.242;20.940;2023-11-19T00:12:36;1.60;99.90
33594;DHT22;19920;52.242;20.940;2023-11-19T00:15:01;1.50;99.90
33594;DHT22;19920;52.242;20.940;2023-11-19T00:17:27;1.50;99.90
33594;DHT22;19920;52.242;20.940;2023-11-19T00:19:53;1.40;99.90
33594;DHT22;19920;52.242;20.940;2023-11-19T00:22:18;1.40;99.90
33594;DHT22;19920;52.242;20.940;2023-11-19T00:24:46;1.50;99.90
33594;DHT22;19920;52.242;20.940;2023-11-19T00:27:11;1.50;99.90
33594;DHT22;19920;52.242;20.940;2023-11-19T00:29:37;1.40;99.90
33594;DHT22;19920;52.242;20.940;2023-11-19T00:32:03;1.40;99.90
33594;DHT22;19920;52.242;20.940;2023-11-19T00:34:30;1.40;99.90
33594;DHT22;19920;52.242;20.940;2023-11-19T00:36:56;1.30;99.90
33594;DHT22;19920;52.242;20.940;2023-11-19T00:39:22;1.30;99.90
33594;DHT22;19920;52.242;20.940;2023-11-19T00:41:48;1.30;99.90
33594;DHT22;19920;52.242;20.940;2023-11-19T00:44:13;1.30;99.90
33594;DHT22;19920;52.242;20.940;2023-11-19T00:46:39;1.30;99.90
33594;DHT22;19920;52.242;20.940;2023-11-19T00:49:05;1.20;99.90
33594;DHT22;19920;52.242;20.940;2023-11-19T00:51:31;1.30;99.90
33594;DHT22;19920;52.242;20.940;2023-11-19T00:53:59;1.20;99.90
33594;DHT22;19920;52.242;20.940;2023-11-19T00:56:26;1.20;99.90
33594;DHT22;19920;52.242;20.940;2023-11-19T00:58:52;1.30;99.90
33594;DHT22;19920;52.242;20.940;2023-11-19T01:01:17;1.40;99.90
33594;DHT22;19920;52.242;20.940;2023-11-19T01:03:43;1.40;99.90
33594;DHT22;19920;52.242;20.940;2023-11-19T01:06:08;1.50;99.90
33594;DHT22;19920;52.242;20.940;2023-11-19T01:08:34;1.40;99.90
33594;DHT22;19920;52.242;20.940;2023-11-19T01:11:01;1.40;99.90
33594;DHT22;19920;52.242;20.940;2023-11-19T01:13:27;1.50;99.90
33594;DHT22;19920;52.242;20.940;2023-11-19T01:15:53;1.50;99.90
33594;DHT22;19920;52.242;20.940;2023-11-19T01:18:19;1.60;99.90
33594;DHT22;19920;52.242;20.940;2023-11-19T01:20:44;1.60;99.90
33594;DHT22;19920;52.242;20.940;2023-11-19T01:23:10;1.60;99.90
33594;DHT22;19920;52.242;20.940;2023-11-19T01:25:35;1.50;99.90
33594;DHT22;19920;52.242;20.940;2023-11-19T01:28:02;1.50;99.90
33594;DHT22;19920;52.242;20.940;2023-11-19T01:30:28;1.60;99.90
33594;DHT22;19920;52.242;20.940;2023-11-19T01:32:53;1.60;99.90
33594;DHT22;19920;52.242;20.940;2023-11-19T01:35:19;1.60;99.90
33594;DHT22;19920;52.242;20.940;2023-11-19T01:37:44;1.60;99.90
33594;DHT22;19920;52.242;20.940;2023-11-19T01:40:11;1.60;99.90
33594;DHT22;19920;52.242;20.940;2023-11-19T01:42:37;1.70;99.90
33594;DHT22;19920;52.242;20.940;2023-11-19T01:45:07;1.60;99.90
33594;DHT22;19920;52.242;20.940;2023-11-19T01:47:34;1.50;99.90
33594;DHT22;19920;52.242;20.940;2023-11-19T01:50:01;1.40;99.90
33594;DHT22;19920;52.242;20.940;2023-11-19T01:52:33;1.60;99.90
33594;DHT22;19920;52.242;20.940;2023-11-19T01:54:59;1.60;99.90
33594;DHT22;19920;52.242;20.940;2023-11-19T01:57:25;1.70;99.90
33594;DHT22;19920;52.242;20.940;2023-11-19T01:59:51;1.70;99.90
33594;DHT22;19920;52.242;20.940;2023-11-19T02:02:18;1.70;99.90
33594;DHT22;19920;52.242;20.940;2023-11-19T02:04:47;1.70;99.90
33594;DHT22;19920;52.242;20.940;2023-11-19T02:07:14;1.70;99.90
33594;DHT22;19920;52.242;20.940;2023-11-19T02:09:43;1.80;99.90
33594;DHT22;19920;52.242;20.940;2023-11-19T02:12:09;1.80;99.90
33594;DHT22;19920;52.242;20.940;2023-11-19T02:14:37;1.90;99.90
33594;DHT22;19920;52.242;20.940;2023-11-19T02:17:04;1.90;99.90
33594;DHT22;19920;52.242;20.940;2023-11-19T02:19:30;2.00;99.90
33594;DHT22;19920;52.242;20.940;2023-11-19T02:21:55;1.90;99.90
33594;DHT22;19920;52.242;20.940;2023-11-19T02:24:22;1.90;99.90
33594;DHT22;19920;52.242;20.940;2023-11-19T02:27:09;1.90;99.90
33594;DHT22;19920;52.242;20.940;2023-11-19T02:29:36;2.00;99.90
33594;DHT22;19920;52.242;20.940;2023-11-19T02:32:01;1.90;99.90
33594;DHT22;19920;52.242;20.940;2023-11-19T02:34:28;1.90;99.90
33594;DHT22;19920;52.242;20.940;2023-11-19T02:36:54;2.00;99.90
33594;DHT22;19920;52.242;20.940;2023-11-19T02:39:19;1.90;99.90
33594;DHT22;19920;52.242;20.940;2023-11-19T02:41:47;1.80;99.90
33594;DHT22;19920;52.242;20.940;2023-11-19T02:44:16;1.80;99.90
33594;DHT22;19920;52.242;20.940;2023-11-19T02:46:41;1.70;99.90
33594;DHT22;19920;52.242;20.940;2023-11-19T02:49:07;1.80;99.90
33594;DHT22;19920;52.242;20.940;2023-11-19T02:51:33;1.80;99.90
33594;DHT22;19920;52.242;20.940;2023-11-19T02:54:00;1.90;99.90
33594;DHT22;19920;52.242;20.940;2023-11-19T02:56:25;2.10;99.90
33594;DHT22;19920;52.242;20.940;2023-11-19T02:58:52;2.00;99.90
33594;DHT22;19920;52.242;20.940;2023-11-19T03:01:24;2.10;99.90
33594;DHT22;19920;52.242;20.940;2023-11-19T03:03:59;2.10;99.90
33594;DHT22;19920;52.242;20.940;2023-11-19T03:06:27;2.10;99.90
33594;DHT22;19920;52.242;20.940;2023-11-19T03:08:54;2.20;99.90
33594;DHT22;19920;52.242;20.940;2023-11-19T03:11:20;2.20;99.90
33594;DHT22;19920;52.242;20.940;2023-11-19T03:13:45;2.20;99.90
33594;DHT22;19920;52.242;20.940;2023-11-19T03:16:12;2.10;99.90
33594;DHT22;19920;52.242;20.940;2023-11-19T03:18:38;2.10;99.90
33594;DHT22;19920;52.242;20.940;2023-11-19T03:21:07;2.20;99.90
33594;DHT22;19920;52.242;20.940;2023-11-19T03:23:36;2.20;99.90
33594;DHT22;19920;52.242;20.940;2023-11-19T03:26:02;2.20;99.90
33594;DHT22;19920;52.242;20.940;2023-11-19T03:28:31;2.10;99.90
33594;DHT22;19920;52.242;20.940;2023-11-19T03:30:57;2.10;99.90
33594;DHT22;19920;52.242;20.940;2023-11-19T03:33:22;2.10;99.90
33594;DHT22;19920;52.242;20.940;2023-11-19T03:35:48;2.10;99.90
33594;DHT22;19920;52.242;20.940;2023-11-19T03:38:13;2.10;99.90
33594;DHT22;19920;52.242;20.940;2023-11-19T03:40:40;2.10;99.90
33594;DHT22;19920;52.242;20.940;2023-11-19T03:43:06;2.20;99.90
33594;DHT22;19920;52.242;20.940;2023-11-19T03:45:31;2.20;99.90
33594;DHT22;19920;52.242;20.940;2023-11-19T03:47:57;2.20;99.90
33594;DHT22;19920;52.242;20.940;2023-11-19T03:50:22;2.10;99.90
33594;DHT22;19920;52.242;20.940;2023-11-19T03:52:49;2.00;99.90
33594;DHT22;19920;52.242;20.940;2023-11-19T03:55:15;2.10;99.90
33594;DHT22;19920;52.242;20.940;2023-11-19T03:57:41;2.00;99.90
33594;DHT22;19920;52.242;20.940;2023-11-19T04:00:07;2.10;99.90
33594;DHT22;19920;52.242;20.940;2023-11-19T04:02:36;2.10;99.90
33594;DHT22;19920;52.242;20.940;2023-11-19T04:05:02;2.10;99.90
33594;DHT22;19920;52.242;20.940;2023-11-19T04:07:29;2.10;99.90
33594;DHT22;19920;52.242;20.940;2023-11-19T04:09:54;2.10;99.90
33594;DHT22;19920;52.242;20.940;2023-11-19T04:12:20;2.20;99.90
33594;DHT22;19920;52.242;20.940;2023-11-19T04:14:47;2.20;99.90
33594;DHT22;19920;52.242;20.940;2023-11-19T04:17:13;2.10;99.90
33594;DHT22;19920;52.242;20.940;2023-11-19T04:19:38;2.20;99.90
33594;DHT22;19920;52.242;20.940;2023-11-19T04:22:07;2.10;99.90
33594;DHT22;19920;52.242;20.940;2023-11-19T04:24:33;2.10;99.90
33594;DHT22;19920;52.242;20.940;2023-11-19T04:26:58;2.10;99.90
33594;DHT22;19920;52.242;20.940;2023-11-19T04:29:24;2.20;99.90
33594;DHT22;19920;52.242;20.940;2023-11-19T04:31:50;2.20;99.90
33594;DHT22;19920;52.242;20.940;2023-11-19T04:34:15;2.20;99.90
33594;DHT22;19920;52.242;20.940;2023-11-19T04:36:41;2.10;99.90
33594;DHT22;19920;52.242;20.940;2023-11-19T04:39:06;2.10;99.90
33594;DHT22;19920;52.242;20.940;2023-11-19T04:41:46;2.20;99.90
33594;DHT22;19920;52.242;20.940;2023-11-19T04:44:12;2.20;99.90
33594;DHT22;19920;52.242;20.940;2023-11-19T04:46:38;2.20;99.90
33594;DHT22;19920;52.242;20.940;2023-11-19T04:49:03;2.20;99.90
33594;DHT22;19920;52.242;20.940;2023-11-19T04:51:30;2.20;99.90
33594;DHT22;19920;52.242;20.940;2023-11-19T04:53:55;2.20;99.90
33594;DHT22;19920;52.242;20.940;2023-11-19T04:56:21;2.20;99.90
33594;DHT22;19920;52.242;20.940;2023-11-19T04:58:48;2.10;99.90
33594;DHT22;19920;52.242;20.940;2023-11-19T05:01:14;2.20;99.90
33594;DHT22;19920;52.242;20.940;2023-11-19T05:03:43;2.10;99.90
33594;DHT22;19920;52.242;20.940;2023-11-19T05:06:09;2.20;99.90
33594;DHT22;19920;52.242;20.940;2023-11-19T05:08:35;2.20;99.90
33594;DHT22;19920;52.242;20.940;2023-11-19T05:11:01;2.20;99.90
33594;DHT22;19920;52.242;20.940;2023-11-19T05:13:26;2.20;99.90
33594;DHT22;19920;52.242;20.940;2023-11-19T05:15:52;2.20;99.90
33594;DHT22;19920;52.242;20.940;2023-11-19T05:18:17;2.10;99.90
33594;DHT22;19920;52.242;20.940;2023-11-19T05:20:44;2.20;99.90
33594;DHT22;19920;52.242;20.940;2023-11-19T05:23:10;2.20;99.90
33594;DHT22;19920;52.242;20.940;2023-11-19T05:25:36;2.20;99.90
33594;DHT22;19920;52.242;20.940;2023-11-19T05:28:02;2.20;99.90
33594;DHT22;19920;52.242;20.940;2023-11-19T05:30:28;2.20;99.90
33594;DHT22;19920;52.242;20.940;2023-11-19T05:32:53;2.20;99.90
33594;DHT22;19920;52.242;20.940;2023-11-19T05:35:19;2.20;99.90
33594;DHT22;19920;52.242;20.940;2023-11-19T05:37:44;2.20;99.90
33594;DHT22;19920;52.242;20.940;2023-11-19T05:40:10;2.10;99.90
33594;DHT22;19920;52.242;20.940;2023-11-19T05:42:40;2.10;99.90
33594;DHT22;19920;52.242;20.940;2023-11-19T05:45:07;2.10;99.90
33594;DHT22;19920;52.242;20.940;2023-11-19T05:47:33;2.20;99.90
33594;DHT22;19920;52.242;20.940;2023-11-19T05:49:59;2.00;99.90
33594;DHT22;19920;52.242;20.940;2023-11-19T05:52:24;2.10;99.90
33594;DHT22;19920;52.242;20.940;2023-11-19T05:54:50;2.00;99.90
33594;DHT22;19920;52.242;20.940;2023-11-19T05:57:18;2.10;99.90
33594;DHT22;19920;52.242;20.940;2023-11-19T05:59:50;2.20;99.90
33594;DHT22;19920;52.242;20.940;2023-11-19T06:02:17;2.20;99.90
33594;DHT22;19920;52.242;20.940;2023-11-19T06:04:42;2.20;99.90
33594;DHT22;19920;52.242;20.940;2023-11-19T06:07:10;2.20;99.90
33594;DHT22;19920;52.242;20.940;2023-11-19T06:09:35;2.20;99.90
33594;DHT22;19920;52.242;20.940;2023-11-19T06:12:01;2.10;99.90
33594;DHT22;19920;52.242;20.940;2023-11-19T06:14:31;2.20;99.90
33594;DHT22;19920;52.242;20.940;2023-11-19T06:16:57;2.10;99.90
33594;DHT22;19920;52.242;20.940;2023-11-19T06:19:22;2.10;99.90
33594;DHT22;19920;52.242;20.940;2023-11-19T06:21:50;2.10;99.90
33594;DHT22;19920;52.242;20.940;2023-11-19T06:24:15;2.10;99.90
33594;DHT22;19920;52.242;20.940;2023-11-19T06:26:41;2.10;99.90
33594;DHT22;19920;52.242;20.940;2023-11-19T06:29:06;2.00;99.90
33594;DHT22;19920;52.242;20.940;2023-11-19T06:31:32;2.00;99.90
33594;DHT22;19920;52.242;20.940;2023-11-19T06:33:57;2.10;99.90
33594;DHT22;19920;52.242;20.940;2023-11-19T06:36:23;2.10;99.90
33594;DHT22;19920;52.242;20.940;2023-11-19T06:38:49;2.10;99.90
33594;DHT22;19920;52.242;20.940;2023-11-19T06:41:14;2.10;99.90
33594;DHT22;19920;52.242;20.940;2023-11-19T06:43:40;2.10;99.90
33594;DHT22;19920;52.242;20.940;2023-11-19T06:46:05;2.10;99.90
33594;DHT22;19920;52.242;20.940;2023-11-19T06:48:32;2.10;99.90
33594;DHT22;19920;52.242;20.940;2023-11-19T06:50:58;2.10;99.90
33594;DHT22;19920;52.242;20.940;2023-11-19T06:53:24;2.10;99.90
33594;DHT22;19920;52.242;20.940;2023-11-19T06:55:50;2.10;99.90
33594;DHT22;19920;52.242;20.940;2023-11-19T06:58:15;2.10;99.90
33594;DHT22;19920;52.242;20.940;2023-11-19T07:00:41;2.10;99.90
33594;DHT22;19920;52.242;20.940;2023-11-19T07:03:06;2.10;99.90
33594;DHT22;19920;52.242;20.940;2023-11-19T07:05:36;2.10;99.90
33594;DHT22;19920;52.242;20.940;2023-11-19T07:08:04;2.10;99.90
33594;DHT22;19920;52.242;20.940;2023-11-19T07:10:29;2.00;99.90
33594;DHT22;19920;52.242;20.940;2023-11-19T07:12:56;2.10;99.90
33594;DHT22;19920;52.242;20.940;2023-11-19T07:15:21;2.10;99.90
33594;DHT22;19920;52.242;20.940;2023-11-19T07:17:47;2.10;99.90
33594;DHT22;19920;52.242;20.940;2023-11-19T07:20:13;2.10;99.90
33594;DHT22;19920;52.242;20.940;2023-11-19T07:22:43;2.10;99.90
33594;DHT22;19920;52.242;20.940;2023-11-19T07:25:12;2.10;99.90
33594;DHT22;19920;52.242;20.940;2023-11-19T07:27:38;2.10;99.90
33594;DHT22;19920;52.242;20.940;2023-11-19T07:30:05;2.10;99.90
33594;DHT22;19920;52.242;20.940;2023-11-19T07:32:32;2.00;99.90
33594;DHT22;19920;52.242;20.940;2023-11-19T07:34:58;2.00;99.90
33594;DHT22;19920;52.242;20.940;2023-11-19T07:37:24;1.90;99.90
33594;DHT22;19920;52.242;20.940;2023-11-19T07:39:49;2.00;99.90
33594;DHT22;19920;52.242;20.940;2023-11-19T07:42:15;2.00;99.90
33594;DHT22;19920;52.242;20.940;2023-11-19T07:44:40;2.10;99.90
33594;DHT22;19920;52.242;20.940;2023-11-19T07:47:07;2.00;99.90
33594;DHT22;19920;52.242;20.940;2023-11-19T07:49:32;2.10;99.90
33594;DHT22;19920;52.242;20.940;2023-11-19T07:51:58;2.20;99.90
33594;DHT22;19920;52.242;20.940;2023-11-19T07:54:24;2.10;99.90
33594;DHT22;19920;52.242;20.940;2023-11-19T07:56:49;2.20;99.90
33594;DHT22;19920;52.242;20.940;2023-11-19T07:59:15;2.30;99.90
33594;DHT22;19920;52.242;20.940;2023-11-19T08:01:41;2.40;99.90
33594;DHT22;19920;52.242;20.940;2023-11-19T08:04:06;2.50;99.90
33594;DHT22;19920;52.242;20.940;2023-11-19T08:06:32;2.50;99.90
33594;DHT22;19920;52.242;20.940;2023-11-19T08:08:58;2.60;99.90
33594;DHT22;19920;52.242;20.940;2023-11-19T08:11:24;2.70;99.90
33594;DHT22;19920;52.242;20.940;2023-11-19T08:13:50;2.60;99.90
33594;DHT22;19920;52.242;20.940;2023-11-19T08:16:15;2.70;99.90
33594;DHT22;19920;52.242;20.940;2023-11-19T08:18:45;2.60;99.90
33594;DHT22;19920;52.242;20.940;2023-11-19T08:21:10;2.60;99.90
33594;DHT22;19920;52.242;20.940;2023-11-19T08:23:36;2.60;99.90
33594;DHT22;19920;52.242;20.940;2023-11-19T08:26:02;2.60;99.90
33594;DHT22;19920;52.242;20.940;2023-11-19T08:28:28;2.70;99.90
33594;DHT22;19920;52.242;20.940;2023-11-19T08:30:53;2.60;99.90
33594;DHT22;19920;52.242;20.940;2023-11-19T08:33:19;2.70;99.90
33594;DHT22;19920;52.242;20.940;2023-11-19T08:35:47;2.70;99.90
33594;DHT22;19920;52.242;20.940;2023-11-19T08:38:13;2.70;99.90
33594;DHT22;19920;52.242;20.940;2023-11-19T08:40:39;2.70;99.90
33594;DHT22;19920;52.242;20.940;2023-11-19T08:43:04;2.70;99.90
33594;DHT22;19920;52.242;20.940;2023-11-19T08:45:30;2.80;99.90
33594;DHT22;19920;52.242;20.940;2023-11-19T08:47:57;2.80;99.90
33594;DHT22;19920;52.242;20.940;2023-11-19T08:50:22;2.80;99.90
33594;DHT22;19920;52.242;20.940;2023-11-19T08:52:48;2.70;99.90
33594;DHT22;19920;52.242;20.940;2023-11-19T08:55:13;2.70;99.90
33594;DHT22;19920;52.242;20.940;2023-11-19T08:57:39;2.80;99.90
33594;DHT22;19920;52.242;20.940;2023-11-19T09:00:05;2.80;99.90
33594;DHT22;19920;52.242;20.940;2023-11-19T09:02:35;2.90;99.90
33594;DHT22;19920;52.242;20.940;2023-11-19T09:05:02;3.00;99.90
33594;DHT22;19920;52.242;20.940;2023-11-19T09:07:28;3.10;99.90
33594;DHT22;19920;52.242;20.940;2023-11-19T09:09:53;3.20;99.90
33594;DHT22;19920;52.242;20.940;2023-11-19T09:12:19;3.20;99.90
33594;DHT22;19920;52.242;20.940;2023-11-19T09:14:45;3.20;99.90
33594;DHT22;19920;52.242;20.940;2023-11-19T09:17:11;3.20;99.90
33594;DHT22;19920;52.242;20.940;2023-11-19T09:19:36;3.20;99.90
33594;DHT22;19920;52.242;20.940;2023-11-19T09:22:02;3.40;99.90
33594;DHT22;19920;52.242;20.940;2023-11-19T09:24:28;3.40;99.90
33594;DHT22;19920;52.242;20.940;2023-11-19T09:26:53;3.30;99.90
33594;DHT22;19920;52.242;20.940;2023-11-19T09:29:20;3.30;99.90
33594;DHT22;19920;52.242;20.940;2023-11-19T09:31:46;3.40;99.90
33594;DHT22;19920;52.242;20.940;2023-11-19T09:34:12;3.30;99.90
33594;DHT22;19920;52.242;20.940;2023-11-19T09:36:37;3.20;99.90
33594;DHT22;19920;52.242;20.940;2023-11-19T09:39:03;3.10;99.90
33594;DHT22;19920;52.242;20.940;2023-11-19T09:41:31;3.10;99.90
33594;DHT22;19920;52.242;20.940;2023-11-19T09:43:58;3.00;99.90
33594;DHT22;19920;52.242;20.940;2023-11-19T09:46:23;2.90;99.90
33594;DHT22;19920;52.242;20.940;2023-11-19T09:48:53;3.00;99.90
33594;DHT22;19920;52.242;20.940;2023-11-19T09:51:22;3.00;99.90
33594;DHT22;19920;52.242;20.940;2023-11-19T09:53:48;3.10;99.90
33594;DHT22;19920;52.242;20.940;2023-11-19T09:56:14;3.10;99.90
33594;DHT22;19920;52.242;20.940;2023-11-19T09:58:40;3.10;99.90
33594;DHT22;19920;52.242;20.940;2023-11-19T10:01:05;3.00;99.90
33594;DHT22;19920;52.242;20.940;2023-11-19T10:03:34;3.10;99.90
33594;DHT22;19920;52.242;20.940;2023-11-19T10:06:09;2.90;99.90
33594;DHT22;19920;52.242;20.940;2023-11-19T10:08:37;3.10;99.90
33594;DHT22;19920;52.242;20.940;2023-11-19T10:11:05;3.00;99.90
33594;DHT22;19920;52.242;20.940;2023-11-19T10:13:31;3.00;99.90
33594;DHT22;19920;52.242;20.940;2023-11-19T10:15:56;3.00;99.90
33594;DHT22;19920;52.242;20.940;2023-11-19T10:18:27;3.10;99.90
33594;DHT22;19920;52.242;20.940;2023-11-19T10:20:53;3.20;99.90
33594;DHT22;19920;52.242;20.940;2023-11-19T10:23:20;3.20;99.90
33594;DHT22;19920;52.242;20.940;2023-11-19T10:25:46;3.20;99.90
33594;DHT22;19920;52.242;20.940;2023-11-19T10:28:11;3.20;99.90
33594;DHT22;19920;52.242;20.940;2023-11-19T10:30:41;3.20;99.90
33594;DHT22;19920;52.242;20.940;2023-11-19T10:33:11;3.20;99.90
33594;DHT22;19920;52.242;20.940;2023-11-19T10:38:19;3.00;99.90
33594;DHT22;19920;52.242;20.940;2023-11-19T10:40:44;3.00;99.90
33594;DHT22;19920;52.242;20.940;2023-11-19T10:43:10;3.10;99.90
33594;DHT22;19920;52.242;20.940;2023-11-19T10:45:37;3.10;99.90
33594;DHT22;19920;52.242;20.940;2023-11-19T10:48:04;3.10;99.90
33594;DHT22;19920;52.242;20.940;2023-11-19T10:50:34;3.00;99.90
33594;DHT22;19920;52.242;20.940;2023-11-19T10:53:00;3.00;99.90
33594;DHT22;19920;52.242;20.940;2023-11-19T10:55:30;3.10;99.90
33594;DHT22;19920;52.242;20.940;2023-11-19T10:58:03;3.00;99.90
33594;DHT22;19920;52.242;20.940;2023-11-19T11:00:42;3.00;99.90
33594;DHT22;19920;52.242;20.940;2023-11-19T11:03:18;3.10;99.90
33594;DHT22;19920;52.242;20.940;2023-11-19T11:05:46;3.00;99.90
33594;DHT22;19920;52.242;20.940;2023-11-19T11:08:13;3.10;99.90
33594;DHT22;19920;52.242;20.940;2023-11-19T11:10:53;3.00;99.90
33594;DHT22;19920;52.242;20.940;2023-11-19T11:13:19;3.00;99.90
33594;DHT22;19920;52.242;20.940;2023-11-19T11:15:45;2.90;99.90
33594;DHT22;19920;52.242;20.940;2023-11-19T11:18:13;2.90;99.90
33594;DHT22;19920;52.242;20.940;2023-11-19T11:20:39;2.80;99.90
33594;DHT22;19920;52.242;20.940;2023-11-19T11:28:59;2.90;99.90
33594;DHT22;19920;52.242;20.940;2023-11-19T11:31:58;2.90;99.90
33594;DHT22;19920;52.242;20.940;2023-11-19T11:37:39;2.80;99.90
33594;DHT22;19920;52.242;20.940;2023-11-19T11:40:05;2.80;99.90
33594;DHT22;19920;52.242;20.940;2023-11-19T11:42:38;2.70;99.90
33594;DHT22;19920;52.242;20.940;2023-11-19T11:52:55;3.00;99.90
33594;DHT22;19920;52.242;20.940;2023-11-19T11:55:24;2.90;99.90
33594;DHT22;19920;52.242;20.940;2023-11-19T11:57:49;3.00;99.90
33594;DHT22;19920;52.242;20.940;2023-11-19T12:00:22;3.00;99.90
33594;DHT22;19920;52.242;20.940;2023-11-19T12:02:48;3.10;99.90
33594;DHT22;19920;52.242;20.940;2023-11-19T12:05:14;3.10;99.90
33594;DHT22;19920;52.242;20.940;2023-11-19T12:07:40;3.10;99.90
33594;DHT22;19920;52.242;20.940;2023-11-19T12:10:07;3.10;99.90
33594;DHT22;19920;52.242;20.940;2023-11-19T12:12:33;3.10;99.90
33594;DHT22;19920;52.242;20.940;2023-11-19T12:15:07;3.20;99.90
33594;DHT22;19920;52.242;20.940;2023-11-19T12:17:48;3.30;99.90
33594;DHT22;19920;52.242;20.940;2023-11-19T12:20:19;3.20;99.90
33594;DHT22;19920;52.242;20.940;2023-11-19T12:22:46;3.20;99.90
33594;DHT22;19920;52.242;20.940;2023-11-19T12:25:13;3.10;99.90
33594;DHT22;19920;52.242;20.940;2023-11-19T12:27:43;3.00;99.90
33594;DHT22;19920;52.242;20.940;2023-11-19T12:30:09;3.00;99.90
33594;DHT22;19920;52.242;20.940;2023-11-19T12:32:46;3.10;99.90
33594;DHT22;19920;52.242;20.940;2023-11-19T12:35:12;3.00;99.90
33594;DHT22;19920;52.242;20.940;2023-11-19T12:37:45;3.10;99.90
33594;DHT22;19920;52.242;20.940;2023-11-19T12:40:18;3.10;99.90
33594;DHT22;19920;52.242;20.940;2023-11-19T12:42:45;3.30;99.90
33594;DHT22;19920;52.242;20.940;2023-11-19T12:45:11;3.20;99.90
33594;DHT22;19920;52.242;20.940;2023-11-19T12:47:38;3.10;99.90
33594;DHT22;19920;52.242;20.940;2023-11-19T12:50:04;3.00;99.90
33594;DHT22;19920;52.242;20.940;2023-11-19T12:52:30;3.10;99.90
33594;DHT22;19920;52.242;20.940;2023-11-19T12:54:56;3.10;99.90
33594;DHT22;19920;52.242;20.940;2023-11-19T12:57:39;3.10;99.90
33594;DHT22;19920;52.242;20.940;2023-11-19T13:00:05;3.10;99.90
33594;DHT22;19920;52.242;20.940;2023-11-19T13:02:50;3.00;99.90
33594;DHT22;19920;52.242;20.940;2023-11-19T13:05:31;2.90;99.90
33594;DHT22;19920;52.242;20.940;2023-11-19T13:08:08;3.00;99.90
33594;DHT22;19920;52.242;20.940;2023-11-19T13:13:16;3.10;99.90
33594;DHT22;19920;52.242;20.940;2023-11-19T13:15:42;3.00;99.90
33594;DHT22;19920;52.242;20.940;2023-11-19T13:18:10;3.00;99.90
33594;DHT22;19920;52.242;20.940;2023-11-19T13:20:36;3.00;99.90
33594;DHT22;19920;52.242;20.940;2023-11-19T13:23:03;3.00;99.90
33594;DHT22;19920;52.242;20.940;2023-11-19T13:25:30;2.90;99.90
33594;DHT22;19920;52.242;20.940;2023-11-19T13:27:56;2.80;99.90
33594;DHT22;19920;52.242;20.940;2023-11-19T13:30:23;2.80;99.90
33594;DHT22;19920;52.242;20.940;2023-11-19T13:32:49;2.70;99.90
33594;DHT22;19920;52.242;20.940;2023-11-19T13:35:15;2.70;99.90
33594;DHT22;19920;52.242;20.940;2023-11-19T13:37:42;2.70;99.90
33594;DHT22;19920;52.242;20.940;2023-11-19T13:40:09;2.70;99.90
33594;DHT22;19920;52.242;20.940;2023-11-19T13:42:42;2.70;99.90
33594;DHT22;19920;52.242;20.940;2023-11-19T13:45:11;2.80;99.90
33594;DHT22;19920;52.242;20.940;2023-11-19T13:47:42;2.70;99.90
33594;DHT22;19920;52.242;20.940;2023-11-19T13:50:09;2.70;99.90
33594;DHT22;19920;52.242;20.940;2023-11-19T13:52:40;2.70;99.90
33594;DHT22;19920;52.242;20.940;2023-11-19T13:55:07;2.70;99.90
33594;DHT22;19920;52.242;20.940;2023-11-19T13:57:37;2.70;99.90
33594;DHT22;19920;52.242;20.940;2023-11-19T14:00:04;2.60;99.90
33594;DHT22;19920;52.242;20.940;2023-11-19T14:02:34;2.70;99.90
33594;DHT22;19920;52.242;20.940;2023-11-19T14:05:00;2.70;99.90
33594;DHT22;19920;52.242;20.940;2023-11-19T14:07:26;2.60;99.90
33594;DHT22;19920;52.242;20.940;2023-11-19T14:09:51;2.60;99.90
33594;DHT22;19920;52.242;20.940;2023-11-19T14:12:17;2.60;99.90
33594;DHT22;19920;52.242;20.940;2023-11-19T14:14:43;2.60;99.90
33594;DHT22;19920;52.242;20.940;2023-11-19T14:17:09;2.60;99.90
33594;DHT22;19920;52.242;20.940;2023-11-19T14:19:36;2.70;99.90
33594;DHT22;19920;52.242;20.940;2023-11-19T14:22:02;2.60;99.90
33594;DHT22;19920;52.242;20.940;2023-11-19T14:24:28;2.60;99.90
33594;DHT22;19920;52.242;20.940;2023-11-19T14:26:53;2.50;99.90
33594;DHT22;19920;52.242;20.940;2023-11-19T14:29:19;2.50;99.90
33594;DHT22;19920;52.242;20.940;2023-11-19T14:31:44;2.60;99.90
33594;DHT22;19920;52.242;20.940;2023-11-19T14:34:10;2.60;99.90
33594;DHT22;19920;52.242;20.940;2023-11-19T14:36:35;2.60;99.90
33594;DHT22;19920;52.242;20.940;2023-11-19T14:39:01;2.60;99.90
33594;DHT22;19920;52.242;20.940;2023-11-19T14:41:27;2.60;99.90
33594;DHT22;19920;52.242;20.940;2023-11-19T14:43:52;2.60;99.90
33594;DHT22;19920;52.242;20.940;2023-11-19T14:46:18;2.60;99.90
33594;DHT22;19920;52.242;20.940;2023-11-19T14:48:43;2.70;99.90
33594;DHT22;19920;52.242;20.940;2023-11-19T14:51:09;2.60;99.90
33594;DHT22;19920;52.242;20.940;2023-11-19T14:53:34;2.60;99.90
33594;DHT22;19920;52.242;20.940;2023-11-19T14:56:00;2.50;99.90
33594;DHT22;19920;52.242;20.940;2023-11-19T14:58:26;2.60;99.90
33594;DHT22;19920;52.242;20.940;2023-11-19T15:00:52;2.50;99.90
33594;DHT22;19920;52.242;20.940;2023-11-19T15:03:18;2.50;99.90
33594;DHT22;19920;52.242;20.940;2023-11-19T15:05:47;2.50;99.90
33594;DHT22;19920;52.242;20.940;2023-11-19T15:08:13;2.60;99.90
33594;DHT22;19920;52.242;20.940;2023-11-19T15:10:41;2.60;99.90
33594;DHT22;19920;52.242;20.940;2023-11-19T15:13:07;2.60;99.90
33594;DHT22;19920;52.242;20.940;2023-11-19T15:15:34;2.60;99.90
33594;DHT22;19920;52.242;20.940;2023-11-19T15:17:59;2.60;99.90
33594;DHT22;19920;52.242;20.940;2023-11-19T15:20:26;2.50;99.90
33594;DHT22;19920;52.242;20.940;2023-11-19T15:22:57;2.40;99.90
33594;DHT22;19920;52.242;20.940;2023-11-19T15:25:23;2.40;99.90
33594;DHT22;19920;52.242;20.940;2023-11-19T15:27:49;2.40;99.90
33594;DHT22;19920;52.242;20.940;2023-11-19T15:30:15;2.50;99.90
33594;DHT22;19920;52.242;20.940;2023-11-19T15:32:41;2.40;99.90
33594;DHT22;19920;52.242;20.940;2023-11-19T15:35:09;2.40;99.90
33594;DHT22;19920;52.242;20.940;2023-11-19T15:37:35;2.40;99.90
33594;DHT22;19920;52.242;20.940;2023-11-19T15:40:01;2.50;99.90
33594;DHT22;19920;52.242;20.940;2023-11-19T15:42:29;2.40;99.90
33594;DHT22;19920;52.242;20.940;2023-11-19T15:44:55;2.40;99.90
33594;DHT22;19920;52.242;20.940;2023-11-19T15:47:20;2.40;99.90
33594;DHT22;19920;52.242;20.940;2023-11-19T15:49:46;2.40;99.90